Time;durP1;ratioP1;P1;durP2;ratioP2;P2;SDS_P1;SDS_P2;PMS_P1;PMS_P2;Temp;Humidity;BMP_temperature;BMP_pressure;BME280_temperature;BME280_humidity;BME280_pressure;Samples;Min_cycle;Max_cycle;Signal;HPM_P1;HPM_P2
2024/03/21 00:01:33;;;;;;;9.50;4.32;;;14.40;50.90;;;;;;5012960;28;20057;-73
2024/03/21 00:04:06;;;;;;;6.97;4.30;;;14.40;51.00;;;;;;5008311;28;20057;-68
2024/03/21 00:06:35;;;;;;;9.90;5.88;;;14.40;50.90;;;;;;4993522;28;21464;-71
2024/03/21 00:09:08;;;;;;;6.13;3.38;;;14.40;50.90;;;;;;4997452;28;20069;-71
2024/03/21 00:11:38;;;;;;;11.25;3.22;;;14.40;51.00;;;;;;5013768;28;20060;-71
2024/03/21 00:14:08;;;;;;;9.07;3.00;;;14.30;50.90;;;;;;5014781;28;20064;-70
2024/03/21 00:16:38;;;;;;;5.97;2.80;;;14.30;51.10;;;;;;5008943;28;20841;-70
2024/03/21 00:19:10;;;;;;;10.43;3.63;;;14.20;51.10;;;;;;4995607;28;20053;-72
2024/03/21 00:21:39;;;;;;;12.68;2.85;;;14.20;51.10;;;;;;5013183;28;20217;-71
2024/03/21 00:24:22;;;;;;;22.60;4.22;;;14.10;51.10;;;;;;4983421;28;20056;-69
2024/03/21 00:26:49;;;;;;;7.20;3.58;;;14.10;51.30;;;;;;5007466;28;20057;-69
2024/03/21 00:29:24;;;;;;;8.15;4.45;;;14.10;51.20;;;;;;5008908;28;20053;-72
2024/03/21 00:31:52;;;;;;;6.97;3.65;;;14.10;51.30;;;;;;5009694;28;20056;-71
2024/03/21 00:34:26;;;;;;;6.30;3.50;;;14.10;51.20;;;;;;4992868;28;20781;-69
2024/03/21 00:36:56;;;;;;;7.13;3.58;;;14.10;51.30;;;;;;5016425;28;20666;-71
2024/03/21 00:39:28;;;;;;;5.55;2.88;;;14.10;51.20;;;;;;4969087;28;20050;-68
2024/03/21 00:41:55;;;;;;;6.00;3.10;;;14.00;51.20;;;;;;5008131;28;20049;-70
2024/03/21 00:44:25;;;;;;;6.80;2.72;;;14.10;51.20;;;;;;4991783;28;20058;-68
2024/03/21 00:46:53;;;;;;;4.72;2.58;;;14.10;51.20;;;;;;4993022;28;20065;-71
2024/03/21 00:49:22;;;;;;;4.93;2.63;;;14.00;51.20;;;;;;5008182;28;20052;-70
2024/03/21 00:51:49;;;;;;;4.78;2.53;;;14.00;51.20;;;;;;4987322;28;20049;-73
2024/03/21 00:54:16;;;;;;;7.70;3.25;;;14.00;51.20;;;;;;5008973;28;20088;-68
2024/03/21 00:56:44;;;;;;;5.47;3.05;;;14.00;51.20;;;;;;5001051;28;20179;-72
2024/03/21 00:59:11;;;;;;;4.20;2.20;;;14.00;51.30;;;;;;5008021;28;20057;-69
2024/03/21 01:01:39;;;;;;;5.28;1.98;;;13.90;51.40;;;;;;5006183;28;20491;-72
2024/03/21 01:04:07;;;;;;;4.60;2.38;;;13.90;51.50;;;;;;5006998;28;20057;-70
2024/03/21 01:06:34;;;;;;;9.73;3.97;;;13.90;51.50;;;;;;4979653;28;20136;-68
2024/03/21 01:09:02;;;;;;;7.38;3.15;;;13.90;51.50;;;;;;5007332;28;20167;-73
2024/03/21 01:11:28;;;;;;;2.38;1.70;;;13.90;51.50;;;;;;5009359;28;20825;-71
2024/03/21 01:13:56;;;;;;;8.75;4.03;;;13.90;51.50;;;;;;5006020;28;20475;-69
2024/03/21 01:16:23;;;;;;;2.65;2.28;;;13.80;52.00;;;;;;5001857;28;20057;-69
2024/03/21 01:18:51;;;;;;;4.47;2.70;;;13.80;51.50;;;;;;5005274;28;20092;-71
2024/03/21 01:21:17;;;;;;;2.10;1.80;;;13.80;51.50;;;;;;5008698;28;20056;-71
2024/03/21 01:23:44;;;;;;;3.50;2.05;;;13.70;51.50;;;;;;5006790;28;20053;-69
2024/03/21 01:26:11;;;;;;;2.67;1.75;;;13.70;52.20;;;;;;5007580;28;20049;-68
2024/03/21 01:28:38;;;;;;;2.78;1.77;;;13.70;51.60;;;;;;5004169;28;20985;-71
2024/03/21 01:31:14;;;;;;;60.40;21.58;;;13.70;51.70;;;;;;4991138;28;20054;-69
2024/03/21 01:33:42;;;;;;;4.63;2.03;;;13.70;51.70;;;;;;5007860;28;20076;-71
2024/03/21 01:36:09;;;;;;;5.32;2.10;;;13.70;51.70;;;;;;5008470;28;20049;-72
2024/03/21 01:38:36;;;;;;;5.35;2.72;;;13.60;51.70;;;;;;5004765;28;20053;-74
2024/03/21 01:41:03;;;;;;;4.43;2.40;;;13.60;52.30;;;;;;5012719;28;20042;-72
2024/03/21 01:43:31;;;;;;;10.43;4.05;;;13.60;51.70;;;;;;5001682;28;20147;-73
2024/03/21 01:46:13;;;;;;;4.55;2.45;;;13.60;51.80;;;;;;5009579;28;20510;-69
2024/03/21 01:48:40;;;;;;;3.25;2.15;;;13.50;51.90;;;;;;5003640;28;21083;-72
2024/03/21 01:51:07;;;;;;;1.75;1.65;;;13.50;51.90;;;;;;5010991;28;20057;-69
2024/03/21 01:53:36;;;;;;;9.73;2.83;;;13.50;51.90;;;;;;5008445;28;20489;-70
2024/03/21 01:56:02;;;;;;;3.30;1.98;;;13.50;52.00;;;;;;5009457;28;20488;-71
2024/03/21 01:58:30;;;;;;;5.43;2.30;;;13.50;52.00;;;;;;5006396;28;20053;-69
2024/03/21 02:00:56;;;;;;;3.45;2.08;;;13.50;52.60;;;;;;5006103;28;20065;-68
2024/03/21 02:03:25;;;;;;;5.30;2.05;;;13.40;51.90;;;;;;5003919;28;20053;-69
2024/03/21 02:05:52;;;;;;;3.08;1.85;;;13.40;52.00;;;;;;5005539;28;20188;-69
2024/03/21 02:08:21;;;;;;;2.38;1.42;;;13.40;52.00;;;;;;5003891;28;20046;-68
2024/03/21 02:10:48;;;;;;;3.25;1.90;;;13.40;52.40;;;;;;5008594;28;20137;-70
2024/03/21 02:13:15;;;;;;;5.07;2.05;;;13.40;52.10;;;;;;4992598;28;20866;-69
2024/03/21 02:15:41;;;;;;;3.10;1.63;;;13.40;52.10;;;;;;5010999;28;20053;-71
2024/03/21 02:18:08;;;;;;;11.15;4.53;;;13.40;52.10;;;;;;4991107;28;20065;-70
2024/03/21 02:20:36;;;;;;;6.07;2.85;;;13.50;52.00;;;;;;4985802;28;20050;-70
2024/03/21 02:23:05;;;;;;;5.75;3.38;;;13.50;52.10;;;;;;4994445;28;20088;-69
2024/03/21 02:25:32;;;;;;;1.88;1.67;;;13.50;52.10;;;;;;5008917;28;20137;-71
2024/03/21 02:27:58;;;;;;;2.28;1.50;;;13.40;51.90;;;;;;5008352;28;20132;-71
2024/03/21 02:30:26;;;;;;;2.45;1.48;;;13.40;51.90;;;;;;4981371;28;20054;-67
2024/03/21 02:32:52;;;;;;;4.80;2.72;;;13.40;52.00;;;;;;5005411;28;20064;-72
2024/03/21 02:35:19;;;;;;;6.13;2.58;;;13.40;52.60;;;;;;5006931;28;20053;-70
2024/03/21 02:37:46;;;;;;;2.72;1.55;;;13.30;52.00;;;;;;5009684;28;20559;-71
2024/03/21 02:40:15;;;;;;;1.85;1.58;;;13.30;52.00;;;;;;4994350;28;20053;-71
2024/03/21 02:42:43;;;;;;;2.45;1.70;;;13.30;52.10;;;;;;5001768;28;20516;-69
2024/03/21 02:45:10;;;;;;;2.85;1.92;;;13.30;52.20;;;;;;5008928;28;20065;-67
2024/03/21 02:47:37;;;;;;;8.95;3.63;;;13.20;52.20;;;;;;5005946;28;20053;-70
2024/03/21 02:50:04;;;;;;;4.68;1.83;;;13.30;52.20;;;;;;4982389;28;20052;-70
2024/03/21 02:52:31;;;;;;;7.15;1.50;;;13.20;52.20;;;;;;5002161;28;20061;-71
2024/03/21 02:54:59;;;;;;;2.45;2.25;;;13.20;52.20;;;;;;4992252;28;20049;-70
2024/03/21 02:57:27;;;;;;;2.72;1.40;;;13.20;52.20;;;;;;4970026;28;1190486;-69
2024/03/21 02:59:54;;;;;;;4.13;2.10;;;13.20;52.10;;;;;;5009458;28;20829;-72
2024/03/21 03:02:21;;;;;;;7.60;2.10;;;13.20;52.00;;;;;;5008407;28;20059;-67
2024/03/21 03:04:47;;;;;;;1.45;1.25;;;13.20;52.10;;;;;;5007108;28;20067;-71
2024/03/21 03:07:14;;;;;;;2.40;1.80;;;13.20;52.20;;;;;;5011497;28;20140;-69
2024/03/21 03:09:41;;;;;;;4.20;2.45;;;13.20;52.00;;;;;;5007542;28;20069;-71
2024/03/21 03:12:08;;;;;;;4.50;1.50;;;13.20;52.00;;;;;;5010265;28;20054;-67
2024/03/21 03:14:36;;;;;;;2.38;1.38;;;13.20;52.00;;;;;;5002777;28;20139;-69
2024/03/21 03:17:03;;;;;;;11.10;4.47;;;13.20;52.00;;;;;;4993231;28;20049;-68
2024/03/21 03:19:30;;;;;;;35.63;12.75;;;13.20;52.00;;;;;;5001784;28;20069;-71
2024/03/21 03:21:57;;;;;;;14.38;4.65;;;13.20;52.10;;;;;;5011209;28;20076;-69
2024/03/21 03:24:23;;;;;;;3.42;1.95;;;13.20;52.20;;;;;;5000129;28;20058;-71
2024/03/21 03:26:50;;;;;;;1.48;1.33;;;13.20;52.20;;;;;;4993893;28;20132;-67
2024/03/21 03:29:17;;;;;;;4.45;2.47;;;13.20;52.20;;;;;;5009203;28;20134;-73
2024/03/21 03:31:45;;;;;;;1.75;1.15;;;13.20;52.20;;;;;;4990788;28;20165;-71
2024/03/21 03:36:57;;;;;;;5.63;2.47;;;13.30;52.20;;;;;;4994614;28;20661;-72
2024/03/21 03:39:25;;;;;;;1.63;1.10;;;13.20;52.20;;;;;;4990919;28;20068;-72
2024/03/21 03:41:52;;;;;;;1.40;1.30;;;13.20;52.20;;;;;;5007803;28;20057;-70
2024/03/21 03:44:20;;;;;;;2.15;1.15;;;13.20;52.10;;;;;;5006223;28;20136;-68
2024/03/21 03:46:50;;;;;;;1.65;1.40;;;13.20;52.10;;;;;;5006793;28;20072;-69
2024/03/21 03:49:18;;;;;;;2.95;1.70;;;13.20;52.20;;;;;;5011835;28;20144;-69
2024/03/21 03:51:45;;;;;;;1.98;1.70;;;13.20;52.20;;;;;;4988905;28;20076;-72
2024/03/21 03:54:11;;;;;;;1.95;1.63;;;13.20;52.20;;;;;;5009537;28;20061;-72
2024/03/21 03:56:39;;;;;;;4.72;1.80;;;13.20;52.30;;;;;;5003148;28;20044;-67
2024/03/21 03:59:05;;;;;;;1.52;0.93;;;13.20;52.30;;;;;;5003819;28;20053;-70
2024/03/21 04:01:32;;;;;;;0.70;0.70;;;13.20;52.30;;;;;;5007290;28;20061;-69
2024/03/21 04:04:00;;;;;;;1.23;1.13;;;13.30;52.40;;;;;;5008640;28;20057;-70
2024/03/21 04:06:27;;;;;;;3.13;1.38;;;13.30;52.50;;;;;;5000169;28;20516;-68
2024/03/21 04:08:54;;;;;;;14.75;1.35;;;13.40;52.50;;;;;;5003234;28;20049;-70
2024/03/21 04:11:21;;;;;;;3.28;1.40;;;13.40;52.40;;;;;;5008279;28;20064;-70
2024/03/21 04:13:47;;;;;;;5.20;1.30;;;13.50;52.40;;;;;;5006596;28;20636;-70
2024/03/21 04:16:16;;;;;;;2.45;1.73;;;13.50;52.20;;;;;;5009201;28;20049;-68
2024/03/21 04:18:42;;;;;;;2.50;1.30;;;13.60;52.20;;;;;;4985407;28;20152;-70
2024/03/21 04:21:12;;;;;;;1.20;1.10;;;13.60;52.00;;;;;;5011573;28;20061;-71
2024/03/21 04:23:38;;;;;;;9.27;1.35;;;13.60;52.00;;;;;;5008394;28;20057;-71
2024/03/21 04:26:06;;;;;;;1.25;1.15;;;13.60;52.00;;;;;;5008462;28;20420;-68
2024/03/21 04:28:32;;;;;;;1.58;1.20;;;13.60;52.00;;;;;;4997299;28;20069;-70
2024/03/21 04:30:59;;;;;;;2.88;1.17;;;13.60;52.30;;;;;;5008654;28;20072;-71
2024/03/21 04:33:25;;;;;;;0.88;0.85;;;13.60;52.00;;;;;;5003284;28;20056;-70
2024/03/21 04:35:53;;;;;;;3.13;1.73;;;13.70;51.90;;;;;;5008917;28;20446;-69
2024/03/21 04:38:22;;;;;;;2.70;1.02;;;13.70;51.90;;;;;;5004618;28;20496;-69
2024/03/21 04:40:50;;;;;;;6.32;1.55;;;13.60;51.80;;;;;;5007118;28;20207;-72
2024/03/21 04:43:17;;;;;;;8.98;2.95;;;13.60;51.80;;;;;;5006163;28;20059;-69
2024/03/21 04:45:45;;;;;;;13.63;1.50;;;13.60;51.80;;;;;;5006380;28;20462;-69
2024/03/21 04:48:11;;;;;;;2.38;1.48;;;13.60;51.70;;;;;;4988004;28;21533;-69
2024/03/21 04:50:39;;;;;;;1.85;1.17;;;13.60;51.70;;;;;;4984179;28;20042;-71
2024/03/21 04:53:05;;;;;;;2.17;1.20;;;13.60;51.70;;;;;;5004141;28;20360;-69
2024/03/21 04:55:37;;;;;;;2.88;1.13;;;13.60;51.70;;;;;;5005419;28;20049;-72
2024/03/21 04:58:03;;;;;;;3.10;1.55;;;13.60;51.70;;;;;;5007204;28;20057;-71
2024/03/21 05:00:30;;;;;;;4.28;1.38;;;13.60;51.70;;;;;;4997886;28;20171;-68
2024/03/21 05:02:57;;;;;;;2.78;1.30;;;13.60;51.80;;;;;;5008911;28;20076;-71
2024/03/21 05:05:24;;;;;;;1.35;1.20;;;13.60;51.70;;;;;;5005768;28;20057;-69
2024/03/21 05:07:51;;;;;;;2.95;1.60;;;13.60;51.80;;;;;;5008330;28;20069;-70
2024/03/21 05:10:18;;;;;;;2.33;1.17;;;13.60;51.90;;;;;;5000595;28;20420;-69
2024/03/21 05:12:47;;;;;;;4.30;1.40;;;13.60;51.70;;;;;;5007709;28;20053;-69
2024/03/21 05:15:13;;;;;;;1.45;1.00;;;13.50;51.80;;;;;;4990120;28;20480;-72
2024/03/21 05:17:41;;;;;;;1.80;1.33;;;13.50;52.40;;;;;;5007196;28;20517;-71
2024/03/21 05:20:10;;;;;;;1.17;1.08;;;13.50;51.80;;;;;;5007418;28;20434;-73
2024/03/21 05:22:37;;;;;;;1.60;1.15;;;13.50;51.80;;;;;;5034535;28;20512;-70
2024/03/21 05:25:07;;;;;;;2.38;1.17;;;13.50;51.80;;;;;;5006171;28;20104;-70
2024/03/21 05:27:34;;;;;;;2.67;1.30;;;13.50;51.80;;;;;;5005802;28;20057;-71
2024/03/21 05:30:04;;;;;;;3.35;1.40;;;13.60;51.80;;;;;;5004029;28;20160;-70
2024/03/21 05:32:31;;;;;;;2.70;0.93;;;13.60;52.40;;;;;;4984069;28;20049;-72
2024/03/21 05:34:58;;;;;;;1.02;1.02;;;13.60;51.70;;;;;;4998812;28;20065;-70
2024/03/21 05:37:25;;;;;;;2.13;1.27;;;13.60;51.70;;;;;;4992885;28;20474;-70
2024/03/21 05:39:51;;;;;;;1.90;1.40;;;13.70;51.70;;;;;;5003318;28;22433;-69
2024/03/21 05:42:18;;;;;;;4.20;2.17;;;13.70;51.70;;;;;;5000491;28;20453;-69
2024/03/21 05:44:45;;;;;;;1.20;1.10;;;13.80;51.60;;;;;;4984358;28;20666;-71
2024/03/21 05:47:22;;;;;;;2.75;1.55;;;13.80;51.60;;;;;;4987017;28;20539;-70
2024/03/21 05:49:49;;;;;;;2.72;1.40;;;13.90;51.60;;;;;;5006493;28;20053;-74
2024/03/21 05:52:17;;;;;;;6.00;1.55;;;13.90;51.50;;;;;;4984524;28;20049;-69
2024/03/21 05:54:48;;;;;;;7.43;1.33;;;14.00;51.60;;;;;;5000225;28;21161;-69
2024/03/21 05:57:15;;;;;;;1.30;1.02;;;14.10;51.60;;;;;;5001563;28;20119;-70
2024/03/21 05:59:42;;;;;;;2.40;1.50;;;14.20;51.60;;;;;;5014806;28;20107;-69
2024/03/21 06:02:09;;;;;;;2.63;1.20;;;14.20;51.50;;;;;;5000849;28;20168;-71
2024/03/21 06:04:37;;;;;;;2.15;1.23;;;14.30;51.50;;;;;;4991269;28;20572;-70
2024/03/21 06:07:05;;;;;;;3.47;1.63;;;14.30;51.40;;;;;;5004007;28;20058;-74
2024/03/21 06:09:32;;;;;;;1.45;1.27;;;14.40;51.30;;;;;;4983352;28;20762;-73
2024/03/21 06:11:59;;;;;;;3.13;1.33;;;14.50;51.40;;;;;;5002921;28;20053;-77
2024/03/21 06:14:25;;;;;;;1.73;1.30;;;14.70;51.30;;;;;;4977926;28;20152;-78
2024/03/21 06:16:53;;;;;;;2.65;1.20;;;14.80;51.30;;;;;;5002902;28;20051;-73
2024/03/21 06:19:19;;;;;;;3.13;1.48;;;15.00;51.20;;;;;;4999206;28;20057;-75
2024/03/21 06:21:48;;;;;;;1.70;1.13;;;15.10;51.00;;;;;;4987517;28;20334;-75
2024/03/21 06:24:15;;;;;;;1.60;0.85;;;15.40;51.00;;;;;;5008282;28;20065;-73
2024/03/21 06:26:44;;;;;;;1.08;1.00;;;15.60;50.70;;;;;;5001476;28;20128;-74
2024/03/21 06:29:14;;;;;;;1.00;0.90;;;15.70;50.80;;;;;;5005316;28;20050;-75
2024/03/21 06:31:42;;;;;;;1.33;1.23;;;15.70;50.30;;;;;;5007429;28;20055;-72
2024/03/21 06:34:12;;;;;;;1.17;1.08;;;15.70;50.20;;;;;;5004552;28;20061;-72
2024/03/21 06:36:42;;;;;;;2.22;1.30;;;15.80;50.30;;;;;;4979166;28;20174;-69
2024/03/21 06:39:11;;;;;;;1.88;1.38;;;15.80;50.20;;;;;;5007286;28;20049;-69
2024/03/21 06:41:38;;;;;;;1.58;1.17;;;15.90;50.20;;;;;;4986011;28;20080;-68
2024/03/21 06:44:05;;;;;;;2.25;1.63;;;15.90;50.00;;;;;;5003355;28;20547;-73
2024/03/21 06:46:32;;;;;;;2.42;1.48;;;16.00;50.10;;;;;;4997131;28;20886;-67
2024/03/21 06:48:58;;;;;;;2.75;1.67;;;16.10;50.10;;;;;;4980008;28;20156;-70
2024/03/21 06:51:26;;;;;;;1.48;1.05;;;16.20;49.90;;;;;;5002094;28;20068;-72
2024/03/21 06:53:52;;;;;;;5.00;1.10;;;16.20;49.90;;;;;;5034811;28;20827;-70
2024/03/21 06:56:21;;;;;;;1.45;0.98;;;16.30;49.80;;;;;;4986223;28;20353;-65
2024/03/21 06:58:47;;;;;;;1.83;1.42;;;16.40;49.80;;;;;;4987429;28;20053;-71
2024/03/21 07:01:15;;;;;;;10.10;1.02;;;16.40;49.70;;;;;;4985942;28;20098;-69
2024/03/21 07:03:41;;;;;;;1.67;1.48;;;16.50;49.70;;;;;;5003955;28;20123;-67
2024/03/21 07:06:08;;;;;;;1.40;1.10;;;16.70;49.90;;;;;;5004787;28;20181;-66
2024/03/21 07:08:35;;;;;;;3.42;1.27;;;16.90;49.60;;;;;;4972514;28;20057;-66
2024/03/21 07:11:02;;;;;;;1.73;1.08;;;17.10;49.50;;;;;;5004563;28;20107;-67
2024/03/21 07:13:30;;;;;;;5.10;1.55;;;17.30;50.00;;;;;;5005139;28;20054;-69
2024/03/21 07:15:58;;;;;;;2.03;1.40;;;17.40;49.10;;;;;;5006924;28;20054;-67
2024/03/21 07:18:24;;;;;;;1.77;1.15;;;17.40;48.90;;;;;;4991301;28;20132;-72
2024/03/21 07:20:55;;;;;;;11.40;1.33;;;17.40;48.50;;;;;;5008552;28;20053;-68
2024/03/21 07:23:22;;;;;;;2.80;1.42;;;17.30;48.60;;;;;;5003452;28;20049;-70
2024/03/21 07:25:49;;;;;;;1.08;0.88;;;17.30;48.70;;;;;;5006925;28;20107;-68
2024/03/21 07:28:16;;;;;;;1.77;1.10;;;17.30;48.60;;;;;;4994890;28;20098;-65
2024/03/21 07:30:47;;;;;;;3.15;1.25;;;17.40;48.80;;;;;;5003703;28;20881;-69
2024/03/21 07:33:13;;;;;;;6.07;1.27;;;17.60;48.80;;;;;;5005580;28;20434;-70
2024/03/21 07:35:41;;;;;;;1.02;0.90;;;17.70;49.30;;;;;;5006432;28;20156;-68
2024/03/21 07:38:07;;;;;;;1.30;1.20;;;17.70;48.60;;;;;;4984137;28;20350;-67
2024/03/21 07:40:34;;;;;;;2.33;1.33;;;18.00;48.70;;;;;;4982424;28;20497;-68
2024/03/21 07:43:01;;;;;;;3.40;1.35;;;18.30;48.50;;;;;;5009092;28;20065;-66
2024/03/21 07:45:28;;;;;;;5.05;1.10;;;18.40;48.00;;;;;;5005173;28;20061;-68
2024/03/21 07:47:55;;;;;;;5.35;1.63;;;18.40;47.60;;;;;;4998391;28;20057;-68
2024/03/21 07:50:23;;;;;;;1.40;0.90;;;18.30;47.70;;;;;;5001894;28;20088;-69
2024/03/21 07:52:49;;;;;;;5.18;1.20;;;18.30;47.70;;;;;;5005694;28;20147;-67
2024/03/21 07:55:17;;;;;;;2.03;1.00;;;18.30;47.70;;;;;;5003716;28;20755;-69
2024/03/21 07:57:43;;;;;;;9.40;1.23;;;18.20;48.20;;;;;;4993162;28;20076;-68
2024/03/21 08:00:11;;;;;;;12.35;1.45;;;18.10;47.60;;;;;;5001623;28;20041;-66
2024/03/21 08:02:37;;;;;;;3.28;1.23;;;18.10;47.80;;;;;;4995774;28;20108;-71
2024/03/21 08:05:07;;;;;;;2.03;1.20;;;18.00;47.90;;;;;;5006291;28;20061;-71
2024/03/21 08:07:33;;;;;;;1.95;1.73;;;18.00;47.60;;;;;;4996918;28;20408;-66
2024/03/21 08:10:00;;;;;;;1.25;0.95;;;17.80;47.60;;;;;;4983469;28;20057;-65
2024/03/21 08:12:27;;;;;;;2.08;0.95;;;17.40;47.40;;;;;;4997996;28;20068;-66
2024/03/21 08:14:54;;;;;;;8.23;1.80;;;16.80;48.00;;;;;;5004138;28;20331;-63
2024/03/21 08:17:20;;;;;;;1.17;1.00;;;16.30;48.70;;;;;;4995453;28;20068;-65
2024/03/21 08:19:50;;;;;;;2.63;1.45;;;16.00;49.30;;;;;;5001367;28;20069;-65
2024/03/21 08:22:18;;;;;;;2.90;1.73;;;15.80;49.80;;;;;;4999373;28;20061;-63
2024/03/21 08:24:48;;;;;;;2.10;1.60;;;15.50;50.30;;;;;;5002276;28;20057;-64
2024/03/21 08:27:17;;;;;;;3.70;1.45;;;15.40;50.70;;;;;;4993371;28;20056;-66
2024/03/21 08:29:45;;;;;;;2.35;1.45;;;15.20;51.00;;;;;;4997703;28;20057;-65
2024/03/21 08:32:12;;;;;;;4.47;1.50;;;15.10;51.30;;;;;;5002762;28;20145;-65
2024/03/21 08:34:39;;;;;;;0.60;0.60;;;14.90;51.60;;;;;;4998545;28;20042;-63
2024/03/21 08:37:06;;;;;;;2.45;0.95;;;14.70;54.30;;;;;;4992936;28;20862;-62
2024/03/21 08:39:35;;;;;;;3.25;0.95;;;14.60;56.20;;;;;;5000329;28;20053;-63
2024/03/21 08:42:01;;;;;;;1.90;1.00;;;14.60;57.10;;;;;;5004332;28;20072;-64
2024/03/21 08:44:28;;;;;;;4.30;0.80;;;14.50;57.80;;;;;;5001446;28;20582;-64
2024/03/21 08:46:55;;;;;;;0.47;0.47;;;14.50;58.50;;;;;;4996776;28;20552;-67
2024/03/21 08:49:23;;;;;;;0.73;0.73;;;14.40;58.90;;;;;;4981208;28;20384;-66
2024/03/21 08:51:49;;;;;;;0.35;0.35;;;14.30;59.80;;;;;;4989881;28;20045;-67
2024/03/21 08:54:16;;;;;;;2.63;0.77;;;14.20;59.50;;;;;;5006973;28;20496;-64
2024/03/21 08:56:44;;;;;;;1.38;1.02;;;14.10;59.90;;;;;;4991291;28;20069;-63
2024/03/21 08:59:11;;;;;;;0.75;0.75;;;14.10;60.20;;;;;;5000677;28;20049;-64
2024/03/21 09:01:38;;;;;;;2.10;0.57;;;14.10;60.50;;;;;;5001239;28;20136;-65
2024/03/21 09:04:05;;;;;;;7.60;1.50;;;14.10;60.80;;;;;;4992296;28;20053;-65
2024/03/21 09:06:31;;;;;;;0.55;0.55;;;14.10;60.90;;;;;;4993814;28;20785;-67
2024/03/21 09:09:00;;;;;;;0.52;0.52;;;14.10;61.20;;;;;;4982504;28;20072;-61
2024/03/21 09:11:28;;;;;;;0.20;0.20;;;14.10;61.20;;;;;;5005936;28;20152;-65
2024/03/21 09:13:57;;;;;;;0.20;0.20;;;13.90;61.70;;;;;;4999762;28;20057;-63
2024/03/21 09:16:24;;;;;;;0.20;0.20;;;13.90;62.70;;;;;;4996052;28;20496;-60
2024/03/21 09:18:51;;;;;;;0.20;0.20;;;13.80;63.20;;;;;;4996038;28;20045;-69
2024/03/21 09:21:18;;;;;;;0.20;0.20;;;13.70;63.30;;;;;;4988360;28;20060;-71
2024/03/21 09:23:46;;;;;;;0.20;0.20;;;13.70;64.20;;;;;;5000965;28;20064;-71
2024/03/21 09:26:13;;;;;;;0.20;0.20;;;13.70;64.80;;;;;;4986246;28;20072;-70
2024/03/21 09:28:41;;;;;;;0.20;0.20;;;13.70;64.90;;;;;;4969208;28;20049;-68
2024/03/21 09:31:08;;;;;;;0.20;0.20;;;13.60;64.70;;;;;;5002938;28;20235;-69
2024/03/21 09:33:35;;;;;;;0.10;0.10;;;13.50;65.30;;;;;;5017290;28;20613;-71
2024/03/21 09:36:03;;;;;;;0.20;0.20;;;13.50;66.10;;;;;;5003698;28;20416;-70
2024/03/21 09:38:30;;;;;;;0.20;0.20;;;13.60;66.80;;;;;;4985361;28;20880;-69
2024/03/21 09:40:58;;;;;;;0.20;0.20;;;13.80;67.40;;;;;;5005870;28;20708;-71
2024/03/21 09:43:25;;;;;;;0.20;0.20;;;14.00;67.50;;;;;;5003127;28;20053;-70
2024/03/21 09:45:53;;;;;;;0.20;0.20;;;14.10;67.50;;;;;;4983113;28;20099;-68
2024/03/21 09:48:22;;;;;;;0.10;0.10;;;14.30;68.10;;;;;;4972482;28;20508;-68
2024/03/21 09:50:49;;;;;;;0.20;0.20;;;14.50;68.20;;;;;;5006306;28;20905;-68
2024/03/21 09:53:17;;;;;;;0.20;0.20;;;14.70;68.10;;;;;;5001539;28;21088;-68
2024/03/21 09:55:43;;;;;;;0.20;0.20;;;14.80;67.90;;;;;;5006528;28;20056;-67
2024/03/21 09:58:14;;;;;;;0.20;0.20;;;14.80;67.70;;;;;;4994306;28;20132;-66
2024/03/21 10:00:41;;;;;;;0.20;0.20;;;14.80;67.70;;;;;;5000401;28;20050;-69
2024/03/21 10:03:13;;;;;;;0.20;0.20;;;14.80;68.30;;;;;;5006321;28;20071;-69
2024/03/21 10:05:41;;;;;;;0.10;0.10;;;14.90;69.50;;;;;;5011427;28;20213;-69
2024/03/21 10:08:08;;;;;;;0.20;0.20;;;15.00;68.70;;;;;;4997044;28;20057;-66
2024/03/21 10:10:35;;;;;;;0.10;0.10;;;15.20;69.10;;;;;;5000870;28;20151;-67
2024/03/21 10:13:02;;;;;;;0.20;0.20;;;15.40;69.00;;;;;;5003336;28;20054;-66
2024/03/21 10:15:31;;;;;;;0.20;0.20;;;15.50;68.50;;;;;;5007880;28;20057;-66
2024/03/21 10:17:59;;;;;;;0.20;0.20;;;15.40;68.40;;;;;;4981342;28;20045;-68
2024/03/21 10:20:26;;;;;;;0.20;0.20;;;15.30;68.40;;;;;;5003599;28;20049;-67
2024/03/21 10:22:54;;;;;;;0.20;0.20;;;15.20;68.70;;;;;;5007504;28;20156;-66
2024/03/21 10:25:21;;;;;;;0.10;0.10;;;15.10;68.60;;;;;;5010429;28;20500;-66
2024/03/21 10:27:48;;;;;;;0.40;0.40;;;15.00;69.00;;;;;;4998157;28;20111;-63
2024/03/21 10:30:18;;;;;;;0.75;0.75;;;15.00;69.20;;;;;;5005311;28;20061;-63
2024/03/21 10:32:46;;;;;;;0.73;0.57;;;15.00;69.50;;;;;;5007157;28;20057;-62
2024/03/21 10:35:16;;;;;;;1.13;1.08;;;15.00;69.70;;;;;;5007758;28;20403;-65
2024/03/21 10:37:43;;;;;;;0.73;0.73;;;15.00;70.00;;;;;;4998024;28;20065;-61
2024/03/21 10:40:14;;;;;;;1.80;1.50;;;15.10;70.10;;;;;;5020138;28;20431;-61
2024/03/21 10:42:46;;;;;;;5.72;1.40;;;15.20;70.20;;;;;;5001513;28;20453;-62
2024/03/21 10:45:16;;;;;;;0.93;0.93;;;15.30;70.10;;;;;;5006162;28;20045;-61
2024/03/21 10:47:47;;;;;;;2.20;1.23;;;15.30;70.00;;;;;;4997131;28;20111;-63
2024/03/21 10:50:22;;;;;;;0.70;0.70;;;15.30;70.00;;;;;;4984381;28;20045;-61
2024/03/21 10:52:49;;;;;;;2.05;1.17;;;15.40;70.50;;;;;;5008362;28;20533;-63
2024/03/21 10:55:20;;;;;;;2.40;0.98;;;15.60;70.80;;;;;;5003479;28;20136;-66
2024/03/21 10:57:50;;;;;;;1.75;0.90;;;15.80;70.80;;;;;;4982497;28;20192;-64
2024/03/21 11:00:22;;;;;;;1.83;0.93;;;15.90;70.40;;;;;;5004427;28;20053;-65
2024/03/21 11:02:51;;;;;;;0.90;0.88;;;15.90;70.20;;;;;;4988685;28;20191;-66
2024/03/21 11:05:22;;;;;;;0.88;0.88;;;15.90;70.00;;;;;;5010910;28;20156;-67
2024/03/21 11:07:49;;;;;;;4.15;1.48;;;15.90;70.00;;;;;;4981295;28;20133;-65
2024/03/21 11:10:21;;;;;;;1.60;1.15;;;15.80;70.10;;;;;;5002238;28;20057;-65
2024/03/21 11:12:48;;;;;;;8.50;1.42;;;15.70;70.10;;;;;;5006061;28;20119;-64
2024/03/21 11:15:17;;;;;;;6.68;1.83;;;15.70;70.30;;;;;;4990455;28;20049;-66
2024/03/21 11:17:43;;;;;;;3.33;1.58;;;15.80;70.40;;;;;;4998157;28;20081;-69
2024/03/21 11:20:13;;;;;;;5.65;2.60;;;15.80;70.30;;;;;;5003841;28;20049;-65
2024/03/21 11:22:44;;;;;;;1.40;1.30;;;15.70;70.30;;;;;;5000852;28;20046;-63
2024/03/21 11:25:12;;;;;;;2.00;1.65;;;15.60;70.70;;;;;;4989230;28;20056;-62
2024/03/21 11:27:40;;;;;;;21.67;1.27;;;15.50;70.30;;;;;;4999088;28;20061;-66
2024/03/21 11:30:10;;;;;;;4.40;1.60;;;15.40;70.60;;;;;;5002906;28;20116;-65
2024/03/21 11:32:36;;;;;;;2.72;1.40;;;15.40;71.00;;;;;;4997101;28;20042;-63
2024/03/21 11:35:04;;;;;;;2.47;1.50;;;15.50;71.10;;;;;;4991320;28;20049;-62
2024/03/21 11:37:30;;;;;;;1.33;1.23;;;15.60;71.10;;;;;;4996097;28;20049;-63
2024/03/21 11:39:58;;;;;;;3.53;1.73;;;15.60;70.80;;;;;;5001924;28;20119;-62
2024/03/21 11:42:26;;;;;;;1.63;1.52;;;15.60;70.90;;;;;;5000133;28;20133;-63
2024/03/21 11:44:55;;;;;;;1.48;1.25;;;15.70;70.80;;;;;;4987055;28;20045;-66
2024/03/21 11:47:21;;;;;;;1.95;1.60;;;15.60;70.40;;;;;;4997908;28;20132;-63
2024/03/21 11:49:49;;;;;;;17.02;2.28;;;15.60;70.40;;;;;;5000017;28;20512;-63
2024/03/21 11:52:18;;;;;;;2.38;1.45;;;15.50;70.40;;;;;;5004280;28;20053;-63
2024/03/21 11:54:45;;;;;;;2.75;1.50;;;15.50;70.60;;;;;;5011548;28;20140;-62
2024/03/21 11:57:13;;;;;;;3.80;2.10;;;15.50;70.50;;;;;;5002687;28;20060;-63
2024/03/21 11:59:41;;;;;;;2.67;1.67;;;15.50;70.60;;;;;;4998760;28;20088;-62
2024/03/21 12:02:12;;;;;;;4.93;2.05;;;15.60;70.70;;;;;;5003733;28;20054;-64
2024/03/21 12:04:39;;;;;;;12.55;2.20;;;15.60;70.70;;;;;;4998684;28;20434;-61
2024/03/21 12:07:07;;;;;;;5.50;1.92;;;15.60;70.70;;;;;;5006292;28;20057;-63
2024/03/21 12:09:37;;;;;;;3.08;2.03;;;15.60;70.40;;;;;;5005037;28;20045;-61
2024/03/21 12:12:05;;;;;;;9.70;1.88;;;15.60;70.50;;;;;;4990747;28;20412;-62
2024/03/21 12:14:32;;;;;;;2.67;1.98;;;15.70;70.80;;;;;;4996896;28;20066;-62
2024/03/21 12:16:59;;;;;;;3.78;1.33;;;15.70;70.70;;;;;;4986414;28;20412;-62
2024/03/21 12:19:28;;;;;;;7.70;2.10;;;15.80;70.90;;;;;;5000836;28;20065;-62
2024/03/21 12:21:54;;;;;;;0.10;0.10;;;15.80;70.70;;;;;;5005584;28;20061;-62
2024/03/21 12:24:22;;;;;;;0.50;0.50;;;15.80;71.10;;;;;;5001640;28;20041;-58
2024/03/21 12:26:49;;;;;;;0.20;0.20;;;15.80;71.30;;;;;;5004726;28;20057;-61
2024/03/21 12:29:16;;;;;;;0.20;0.20;;;15.80;71.40;;;;;;5006209;28;20543;-65
2024/03/21 12:31:43;;;;;;;0.10;0.10;;;15.90;71.70;;;;;;4990257;28;20049;-61
2024/03/21 12:34:11;;;;;;;0.35;0.35;;;16.00;71.80;;;;;;5003671;28;20049;-63
2024/03/21 12:36:38;;;;;;;0.20;0.20;;;16.00;71.70;;;;;;4994911;28;20414;-65
2024/03/21 12:39:07;;;;;;;0.10;0.10;;;16.00;71.60;;;;;;5003682;28;20123;-61
2024/03/21 12:41:33;;;;;;;0.20;0.20;;;16.00;71.80;;;;;;5005081;28;20136;-65
2024/03/21 12:44:01;;;;;;;0.10;0.10;;;16.00;71.70;;;;;;5004319;28;20050;-62
2024/03/21 12:46:27;;;;;;;0.28;0.28;;;16.00;71.60;;;;;;5001152;28;20095;-63
2024/03/21 12:48:54;;;;;;;0.10;0.10;;;16.00;71.90;;;;;;5003313;28;20773;-62
2024/03/21 12:51:21;;;;;;;0.20;0.20;;;16.10;71.90;;;;;;5010479;28;20562;-67